createdAt,value
2022-10-07T03:19:18.645Z,6.70
2022-10-07T03:22:36.722Z,4.00
2022-10-07T03:25:55.953Z,3.53
2022-10-07T03:29:08.261Z,5.27
2022-10-07T03:32:18.063Z,3.83
2022-10-07T03:35:29.838Z,2.30
2022-10-07T03:38:39.611Z,2.10
2022-10-07T03:41:51.456Z,3.30
2022-10-07T03:45:01.162Z,4.17
2022-10-07T03:48:11.822Z,4.10
2022-10-07T03:51:25.118Z,5.67
2022-10-07T03:54:35.111Z,4.40
2022-10-07T03:57:59.486Z,3.63
2022-10-07T04:01:15.746Z,2.30
2022-10-07T04:04:36.108Z,1.90
2022-10-07T04:07:48.688Z,2.00
2022-10-07T04:10:59.973Z,2.10
2022-10-07T04:14:09.599Z,1.90
2022-10-07T04:17:21.806Z,2.00
2022-10-07T04:20:31.660Z,1.40
2022-10-07T04:23:45.431Z,1.77
2022-10-07T04:26:55.116Z,1.70
2022-10-07T04:30:05.392Z,1.73
2022-10-07T04:33:18.813Z,1.70
2022-10-07T04:36:28.777Z,1.37
2022-10-07T04:40:00.571Z,21.50
2022-10-07T04:43:19.924Z,10.47
2022-10-07T04:46:37.630Z,1.97
2022-10-07T04:49:57.857Z,3.20
2022-10-07T04:53:08.300Z,3.67
2022-10-07T04:56:20.427Z,2.47
2022-10-07T04:59:34.419Z,2.17
2022-10-07T06:50:07.685Z,3.40
2022-10-07T06:53:17.507Z,3.10
2022-10-07T06:56:28.263Z,3.20
2022-10-07T06:59:38.111Z,2.40
2022-10-07T07:02:54.020Z,4.00
2022-10-07T07:06:07.735Z,6.20
2022-10-07T07:09:18.138Z,4.90
2022-10-07T07:12:30.117Z,3.07
2022-10-07T07:15:40.617Z,2.70
2022-10-07T07:18:52.597Z,4.77
2022-10-07T07:22:06.762Z,3.63
2022-10-07T07:25:16.757Z,5.30
2022-10-07T07:28:29.553Z,4.80
2022-10-07T07:31:39.685Z,5.47
2022-10-07T07:34:49.528Z,6.53
2022-10-07T07:38:04.640Z,14.43
2022-10-07T07:41:15.043Z,22.37
2022-10-07T07:44:24.951Z,24.30
2022-10-07T07:47:38.022Z,19.20
2022-10-07T07:50:47.765Z,15.00
2022-10-07T07:54:01.506Z,11.37
2022-10-07T07:57:11.896Z,6.40
2022-10-07T08:00:21.762Z,6.20
2022-10-07T08:03:46.545Z,5.80
2022-10-07T08:06:57.196Z,5.03
2022-10-07T08:10:14.594Z,3.63
2022-10-07T08:13:24.540Z,2.53
2022-10-07T08:16:38.004Z,3.00
2022-10-07T08:19:48.104Z,2.67
2022-10-07T08:23:02.267Z,3.70
2022-10-07T08:26:13.160Z,2.80
2022-10-07T08:29:23.441Z,3.53
2022-10-07T08:32:42.794Z,5.83
2022-10-07T08:35:53.069Z,6.60
2022-10-07T08:39:06.672Z,4.93
2022-10-07T08:42:26.818Z,4.70
2022-10-07T08:45:43.738Z,4.27
2022-10-07T13:50:21.048Z,3.70
2022-10-07T13:53:33.153Z,2.10
2022-10-07T13:56:47.572Z,2.67
2022-10-07T13:59:59.811Z,3.30
2022-10-07T14:03:14.643Z,2.60
2022-10-07T14:06:39.131Z,2.53
2022-10-07T14:09:50.297Z,2.47
2022-10-07T14:13:03.215Z,2.50
2022-10-07T14:16:22.263Z,2.90
2022-10-07T14:19:33.335Z,2.33
2022-10-07T14:22:50.052Z,3.30
2022-10-07T14:26:04.070Z,2.50
2022-10-07T14:29:35.300Z,3.53
2022-10-07T14:32:58.904Z,2.20
2022-10-07T14:36:13.623Z,3.10
2022-10-07T14:39:36.762Z,2.30
2022-10-07T14:42:52.355Z,1.60
2022-10-07T14:46:09.309Z,1.80
2022-10-07T14:49:18.899Z,3.70
2022-10-07T14:52:35.110Z,2.20
2022-10-07T14:55:46.001Z,2.10
2022-10-07T14:59:01.761Z,2.40
2022-10-07T15:02:14.946Z,2.60
2022-10-07T15:05:26.386Z,2.40
2022-10-07T15:08:36.108Z,4.57
2022-10-07T15:11:53.198Z,3.37
2022-10-07T15:15:03.048Z,3.43
2022-10-07T15:18:12.685Z,3.87
2022-10-07T15:21:37.234Z,5.77
2022-10-07T15:24:49.505Z,2.70
2022-10-07T15:28:02.004Z,2.33
2022-10-07T15:31:14.158Z,2.30
2022-10-07T15:34:23.928Z,2.40
2022-10-07T15:37:39.338Z,2.10
2022-10-07T15:40:56.656Z,2.37
2022-10-07T15:44:13.263Z,2.47
2022-10-07T15:47:28.144Z,6.20
2022-10-07T15:50:38.017Z,9.83
2022-10-07T15:53:47.746Z,6.70
2022-10-07T15:56:57.401Z,3.00
2022-10-07T16:00:14.741Z,2.03
2022-10-07T16:03:24.619Z,2.27
2022-10-07T16:06:36.846Z,3.00
2022-10-07T16:09:46.417Z,2.80
2022-10-07T16:13:01.713Z,2.90
2022-10-07T16:16:16.676Z,3.73
2022-10-07T16:19:31.064Z,3.00
2022-10-07T16:22:40.631Z,5.63
2022-10-07T16:25:50.204Z,4.97
2022-10-07T16:29:11.941Z,3.90
2022-10-07T16:32:23.049Z,3.77
2022-10-07T16:35:35.951Z,4.20
2022-10-07T16:38:49.856Z,4.37
2022-10-07T16:41:59.787Z,3.60
2022-10-07T16:45:09.838Z,3.97
2022-10-07T16:48:21.063Z,4.40
2022-10-07T16:51:35.492Z,4.43
2022-10-07T16:54:45.125Z,4.33
2022-10-07T16:57:56.907Z,4.10
2022-10-07T17:01:09.522Z,3.33
2022-10-07T17:04:20.874Z,3.83
2022-10-07T17:07:32.940Z,5.20
2022-10-07T17:10:45.741Z,3.80
2022-10-07T17:13:58.117Z,3.47
2022-10-07T17:17:10.844Z,5.70
2022-10-07T17:20:22.053Z,5.70
2022-10-07T17:23:35.223Z,4.90
2022-10-07T17:26:46.052Z,3.43
2022-10-07T17:29:56.026Z,5.20
2022-10-07T17:33:06.732Z,10.33
2022-10-07T17:36:17.732Z,8.33
2022-10-07T17:39:31.071Z,8.53
2022-10-07T17:42:40.733Z,9.47
2022-10-07T17:45:50.462Z,6.23
2022-10-07T17:49:01.889Z,4.60
2022-10-07T17:52:15.567Z,13.17
2022-10-07T17:55:25.275Z,12.03
2022-10-07T17:58:42.493Z,4.73
2022-10-07T18:01:52.044Z,4.00
2022-10-07T18:05:01.734Z,4.17
2022-10-07T18:08:12.574Z,4.20
2022-10-07T18:11:22.383Z,4.50
2022-10-07T18:14:43.054Z,8.27
2022-10-07T18:17:56.107Z,17.10
2022-10-07T18:21:06.964Z,11.10
2022-10-07T18:24:27.760Z,9.10
2022-10-07T18:27:37.545Z,8.93
2022-10-07T18:30:47.419Z,5.97
2022-10-07T18:34:00.212Z,5.23
2022-10-07T18:37:09.930Z,7.00
2022-10-07T18:40:21.011Z,5.83
2022-10-07T18:48:16.463Z,4.63
2022-10-07T18:51:29.286Z,6.50
2022-10-07T18:54:38.931Z,5.00
2022-10-07T18:57:53.599Z,5.90
2022-10-07T19:01:08.282Z,5.37
2022-10-07T19:04:34.773Z,3.87
2022-10-07T19:07:54.755Z,7.97
2022-10-07T19:11:10.611Z,5.77
2022-10-07T19:14:27.220Z,6.00
2022-10-07T19:17:42.062Z,17.40
2022-10-07T19:20:58.615Z,9.93
2022-10-07T19:24:09.694Z,10.00
2022-10-07T19:27:24.068Z,9.73
2022-10-07T19:30:40.810Z,9.37
2022-10-07T19:33:52.479Z,6.10
2022-10-07T19:37:02.855Z,5.90
2022-10-07T19:40:16.378Z,3.90
2022-10-07T19:43:28.161Z,3.53
2022-10-07T19:46:39.919Z,3.20
2022-10-07T19:49:52.746Z,3.63
2022-10-07T19:53:03.186Z,4.70
2022-10-07T19:56:15.823Z,5.80
2022-10-07T19:59:26.286Z,4.40
2022-10-07T20:02:38.175Z,4.47
2022-10-07T20:05:49.359Z,4.17
2022-10-07T20:09:02.440Z,3.50
2022-10-07T20:12:14.107Z,3.50
2022-10-07T20:15:24.296Z,3.10
2022-10-07T20:18:36.739Z,3.80
2022-10-07T20:21:47.037Z,4.07
2022-10-07T20:24:57.361Z,3.27
2022-10-07T20:28:07.706Z,3.43
2022-10-07T20:31:22.480Z,2.67
2022-10-07T20:34:34.012Z,3.10
2022-10-07T20:37:44.113Z,3.40
2022-10-07T20:41:05.067Z,2.93
2022-10-07T20:44:17.291Z,2.97
2022-10-07T20:47:30.040Z,2.57
2022-10-07T20:50:41.550Z,2.80
2022-10-07T20:53:52.726Z,3.60
2022-10-07T20:57:02.777Z,2.97
2022-10-07T21:00:16.709Z,8.60
2022-10-07T21:03:28.950Z,19.17
2022-10-07T21:06:41.250Z,18.53
2022-10-07T21:09:53.931Z,17.73
2022-10-07T21:13:04.156Z,5.47
2022-10-07T21:16:20.417Z,3.50
2022-10-07T21:19:31.931Z,3.30
2022-10-07T21:22:43.496Z,3.73
2022-10-07T21:25:53.756Z,3.93
2022-10-07T21:29:07.038Z,3.63
2022-10-07T21:32:17.119Z,3.03
2022-10-07T21:35:27.230Z,7.50
2022-10-07T21:38:39.671Z,7.73
2022-10-07T21:41:50.489Z,11.67
2022-10-07T21:45:01.723Z,9.37
2022-10-07T21:48:11.942Z,12.67
2022-10-07T21:51:22.575Z,15.40
2022-10-07T21:54:39.844Z,7.50
2022-10-07T21:57:49.893Z,4.90
2022-10-07T22:01:09.193Z,5.03
2022-10-07T22:04:30.722Z,8.97
2022-10-07T22:07:54.799Z,6.33
2022-10-07T22:11:09.423Z,5.87
2022-10-07T22:14:19.734Z,4.67
2022-10-07T22:17:34.756Z,4.80
2022-10-07T22:20:46.932Z,3.40
2022-10-07T22:23:58.662Z,3.60
2022-10-07T22:27:12.300Z,4.03
2022-10-07T22:30:22.378Z,4.00
2022-10-07T22:33:32.528Z,3.30
2022-10-07T22:36:42.576Z,3.70
2022-10-07T22:39:52.678Z,2.93
